createdAt,value
2019-02-24T00:00:51.135Z,1032.64
2019-02-24T00:01:52.613Z,1032.59
2019-02-24T00:02:53.997Z,1032.61
2019-02-24T00:03:55.397Z,1032.63
2019-02-24T00:04:56.784Z,1032.60
2019-02-24T00:05:58.162Z,1032.64
2019-02-24T00:06:59.545Z,1032.60
2019-02-24T00:08:00.935Z,1032.62
2019-02-24T00:09:02.334Z,1032.61
2019-02-24T00:10:03.713Z,1032.62
2019-02-24T00:11:05.100Z,1032.59
2019-02-24T00:12:06.499Z,1032.56
2019-02-24T00:13:07.900Z,1032.50
2019-02-24T00:14:09.283Z,1032.50
2019-02-24T00:15:10.670Z,1032.50
2019-02-24T00:16:12.064Z,1032.44
2019-02-24T00:17:13.453Z,1032.47
2019-02-24T00:18:14.837Z,1032.43
2019-02-24T00:19:16.232Z,1032.46
2019-02-24T00:20:17.618Z,1032.49
2019-02-24T00:21:19.008Z,1032.44
2019-02-24T00:22:20.800Z,1032.52
2019-02-24T00:23:22.194Z,1032.50
2019-02-24T00:24:23.594Z,1032.50
2019-02-24T00:25:24.989Z,1032.50
2019-02-24T00:26:26.370Z,1032.50
2019-02-24T00:27:27.764Z,1032.52
2019-02-24T00:28:29.153Z,1032.48
2019-02-24T00:29:30.551Z,1032.50
2019-02-24T00:30:31.939Z,1032.47
2019-02-24T00:31:33.329Z,1032.48
2019-02-24T00:32:34.719Z,1032.46
2019-02-24T00:33:36.159Z,1032.49
2019-02-24T00:34:37.555Z,1032.49
2019-02-24T00:35:38.991Z,1032.52
2019-02-24T00:36:40.387Z,1032.49
2019-02-24T00:37:41.772Z,1032.46
2019-02-24T00:38:43.174Z,1032.47
2019-02-24T00:39:44.559Z,1032.47
2019-02-24T00:40:45.935Z,1032.44
2019-02-24T00:41:47.356Z,1032.40
2019-02-24T00:42:48.709Z,1032.42
2019-02-24T00:43:50.089Z,1032.39
2019-02-24T00:44:51.476Z,1032.41
2019-02-24T00:45:52.866Z,1032.42
2019-02-24T00:46:54.260Z,1032.43
2019-02-24T00:47:55.651Z,1032.38
2019-02-24T00:48:57.036Z,1032.42
2019-02-24T00:49:58.554Z,1032.42
2019-02-24T00:50:59.937Z,1032.45
2019-02-24T00:52:01.331Z,1032.44
2019-02-24T00:53:02.713Z,1032.43
2019-02-24T00:54:04.195Z,1032.45
2019-02-24T00:55:05.580Z,1032.44
2019-02-24T00:56:06.985Z,1032.42
2019-02-24T00:57:08.367Z,1032.42
2019-02-24T00:58:15.963Z,1032.43
2019-02-24T00:59:11.111Z,1032.42
2019-02-24T01:00:12.653Z,1032.38
2019-02-24T01:01:14.041Z,1032.39
2019-02-24T01:02:15.435Z,1032.30
2019-02-24T01:03:16.831Z,1032.31
2019-02-24T01:04:18.214Z,1032.33
2019-02-24T01:05:19.600Z,1032.34
2019-02-24T01:06:20.996Z,1032.34
2019-02-24T01:07:22.382Z,1032.40
2019-02-24T01:08:23.769Z,1032.39
2019-02-24T01:09:25.151Z,1032.44
2019-02-24T01:10:26.707Z,1032.42
2019-02-24T01:11:28.214Z,1032.48
2019-02-24T01:12:29.598Z,1032.48
2019-02-24T01:13:31.074Z,1032.43
2019-02-24T01:14:32.463Z,1032.50
2019-02-24T01:15:33.853Z,1032.51
2019-02-24T01:16:35.296Z,1032.51
2019-02-24T01:17:36.631Z,1032.54
2019-02-24T01:18:38.118Z,1032.53
2019-02-24T01:19:39.520Z,1032.55
2019-02-24T01:20:40.908Z,1032.56
2019-02-24T01:21:42.303Z,1032.49
2019-02-24T01:22:43.687Z,1032.58
2019-02-24T01:23:45.095Z,1032.56
2019-02-24T01:24:46.492Z,1032.56
2019-02-24T01:25:47.883Z,1032.57
2019-02-24T01:26:49.267Z,1032.61
2019-02-24T01:27:50.651Z,1032.60
2019-02-24T01:28:52.047Z,1032.58
2019-02-24T01:29:53.429Z,1032.61
2019-02-24T01:30:54.815Z,1032.63
2019-02-24T01:31:56.215Z,1032.61
2019-02-24T01:32:57.601Z,1032.58
2019-02-24T01:33:58.994Z,1032.54
2019-02-24T01:35:00.374Z,1032.53
2019-02-24T01:36:01.765Z,1032.56
2019-02-24T01:37:03.148Z,1032.54
2019-02-24T01:38:04.699Z,1032.55
2019-02-24T01:39:06.095Z,1032.51
2019-02-24T01:40:07.476Z,1032.51
2019-02-24T01:41:08.916Z,1032.54
2019-02-24T01:42:10.307Z,1032.53
2019-02-24T01:43:11.696Z,1032.49
2019-02-24T01:44:13.080Z,1032.44
2019-02-24T01:45:14.479Z,1032.44
2019-02-24T01:46:15.866Z,1032.43
2019-02-24T01:47:17.238Z,1032.37
2019-02-24T01:48:18.634Z,1032.35
2019-02-24T01:49:20.018Z,1032.34
2019-02-24T01:50:21.408Z,1032.32
2019-02-24T01:51:22.794Z,1032.34
2019-02-24T01:52:24.181Z,1032.33
2019-02-24T01:53:25.570Z,1032.29
2019-02-24T01:54:26.969Z,1032.33
2019-02-24T01:55:28.343Z,1032.31
2019-02-24T01:56:29.735Z,1032.32
2019-02-24T01:57:31.118Z,1032.28
2019-02-24T01:58:35.132Z,1032.27
2019-02-24T01:59:33.858Z,1032.27
2019-02-24T02:00:35.258Z,1032.27
2019-02-24T02:01:36.640Z,1032.26
2019-02-24T02:02:38.041Z,1032.28
2019-02-24T02:03:39.421Z,1032.32
2019-02-24T02:04:40.809Z,1032.31
2019-02-24T02:05:42.205Z,1032.30
2019-02-24T02:06:43.590Z,1032.28
2019-02-24T02:07:44.984Z,1032.27
2019-02-24T02:08:46.379Z,1032.20
2019-02-24T02:09:47.778Z,1032.17
2019-02-24T02:10:49.160Z,1032.12
2019-02-24T02:11:50.552Z,1032.12
2019-02-24T02:12:51.944Z,1032.08
2019-02-24T02:13:53.332Z,1032.07
2019-02-24T02:14:54.724Z,1032.07
2019-02-24T02:15:56.110Z,1032.02
2019-02-24T02:16:57.494Z,1032.01
2019-02-24T02:17:58.884Z,1031.99
2019-02-24T02:19:00.277Z,1031.93
2019-02-24T02:20:01.655Z,1031.96
2019-02-24T02:21:03.041Z,1031.92
2019-02-24T02:22:04.429Z,1031.90
2019-02-24T02:23:05.810Z,1031.89
2019-02-24T02:24:07.199Z,1031.88
2019-02-24T02:25:08.592Z,1031.86
2019-02-24T02:26:09.979Z,1031.88
2019-02-24T02:27:11.371Z,1031.83
2019-02-24T02:28:12.765Z,1031.80
2019-02-24T02:29:14.157Z,1031.77
2019-02-24T02:30:15.564Z,1031.80
2019-02-24T02:31:16.947Z,1031.77
2019-02-24T02:32:18.340Z,1031.79
2019-02-24T02:33:20.426Z,1031.82
2019-02-24T02:34:21.833Z,1031.82
2019-02-24T02:35:23.234Z,1031.88
2019-02-24T02:36:24.628Z,1031.88
2019-02-24T02:37:26.025Z,1031.88
2019-02-24T02:38:27.404Z,1031.91
2019-02-24T02:39:28.812Z,1031.92
2019-02-24T02:40:30.190Z,1031.90
2019-02-24T02:41:31.579Z,1031.86
2019-02-24T02:42:32.978Z,1031.83
2019-02-24T02:43:34.364Z,1031.87
2019-02-24T02:44:35.751Z,1031.84
2019-02-24T02:45:37.142Z,1031.87
2019-02-24T02:46:38.525Z,1031.85
2019-02-24T02:47:39.924Z,1031.84
2019-02-24T02:48:41.321Z,1031.79
2019-02-24T02:49:42.724Z,1031.77
2019-02-24T02:50:44.115Z,1031.75
2019-02-24T02:51:45.535Z,1031.75
2019-02-24T02:52:46.934Z,1031.79
2019-02-24T02:53:48.351Z,1031.75
2019-02-24T02:54:49.746Z,1031.81
2019-02-24T02:55:51.156Z,1031.77
2019-02-24T02:56:52.541Z,1031.80
2019-02-24T02:57:53.937Z,1031.76
2019-02-24T02:58:55.336Z,1031.75
2019-02-24T02:59:56.735Z,1031.76
2019-02-24T03:00:58.131Z,1031.72
2019-02-24T03:01:59.551Z,1031.70
2019-02-24T03:03:00.958Z,1031.74
2019-02-24T03:04:02.354Z,1031.71
2019-02-24T03:05:03.766Z,1031.70
2019-02-24T03:06:05.156Z,1031.70
2019-02-24T03:07:06.598Z,1031.75
2019-02-24T03:08:08.884Z,1031.75
2019-02-24T03:09:10.307Z,1031.81
2019-02-24T03:10:11.720Z,1031.81
2019-02-24T03:11:13.110Z,1031.79
2019-02-24T03:12:14.508Z,1031.74
2019-02-24T03:13:15.905Z,1031.75
2019-02-24T03:14:17.341Z,1031.70
2019-02-24T03:15:18.738Z,1031.71
2019-02-24T03:16:20.142Z,1031.71
2019-02-24T03:17:21.563Z,1031.69
2019-02-24T03:18:22.959Z,1031.65
2019-02-24T03:19:24.347Z,1031.67
2019-02-24T03:20:25.773Z,1031.63
2019-02-24T03:21:27.214Z,1031.62
2019-02-24T03:22:28.635Z,1031.64
2019-02-24T03:23:30.979Z,1031.69
2019-02-24T03:24:32.390Z,1031.68
2019-02-24T03:25:33.777Z,1031.72
2019-02-24T03:26:35.181Z,1031.72
2019-02-24T03:27:36.587Z,1031.72
2019-02-24T03:28:38.002Z,1031.78
2019-02-24T03:29:39.389Z,1031.79
2019-02-24T03:30:40.810Z,1031.80
2019-02-24T03:31:42.225Z,1031.83
2019-02-24T03:32:43.612Z,1031.79
2019-02-24T03:33:45.224Z,1031.79
2019-02-24T03:34:46.402Z,1031.78
2019-02-24T03:35:48.706Z,1031.75
2019-02-24T03:36:50.112Z,1031.77
2019-02-24T03:37:51.516Z,1031.74
2019-02-24T03:38:52.921Z,1031.74
2019-02-24T03:39:54.338Z,1031.72
2019-02-24T03:40:55.750Z,1031.76
2019-02-24T03:41:57.168Z,1031.83
2019-02-24T03:42:58.572Z,1031.83
2019-02-24T03:44:00.004Z,1031.91
2019-02-24T03:45:01.381Z,1031.87
2019-02-24T03:46:02.796Z,1031.77
2019-02-24T03:47:04.200Z,1031.75
2019-02-24T03:48:05.601Z,1031.73
2019-02-24T03:49:07.004Z,1031.70
2019-02-24T03:50:08.403Z,1031.65
2019-02-24T03:51:09.813Z,1031.63
2019-02-24T03:52:11.199Z,1031.67
2019-02-24T03:53:12.627Z,1031.67
2019-02-24T03:54:14.035Z,1031.69
2019-02-24T03:55:16.011Z,1031.67
2019-02-24T03:56:17.421Z,1031.64
2019-02-24T03:57:18.811Z,1031.67
2019-02-24T03:58:20.229Z,1031.66
2019-02-24T03:59:21.631Z,1031.61
2019-02-24T04:00:23.029Z,1031.54
2019-02-24T04:01:24.437Z,1031.56
2019-02-24T04:02:25.862Z,1031.53
2019-02-24T04:03:27.257Z,1031.51
2019-02-24T04:04:28.660Z,1031.49
2019-02-24T04:05:30.060Z,1031.54
2019-02-24T04:06:31.476Z,1031.51
2019-02-24T04:07:32.879Z,1031.56
2019-02-24T04:08:34.282Z,1031.56
2019-02-24T04:09:35.689Z,1031.57
2019-02-24T04:10:37.083Z,1031.63
2019-02-24T04:11:38.484Z,1031.62
2019-02-24T04:12:39.907Z,1031.62
2019-02-24T04:13:41.369Z,1031.61
2019-02-24T04:14:42.728Z,1031.56
2019-02-24T04:15:44.120Z,1031.57
2019-02-24T04:16:45.521Z,1031.56
2019-02-24T04:17:46.931Z,1031.51
2019-02-24T04:18:48.329Z,1031.50
2019-02-24T04:19:49.752Z,1031.44
2019-02-24T04:20:51.155Z,1031.41
2019-02-24T04:21:52.556Z,1031.35
2019-02-24T04:22:53.959Z,1031.29
2019-02-24T04:23:55.360Z,1031.23
2019-02-24T04:24:56.764Z,1031.27
2019-02-24T04:25:58.165Z,1031.20
2019-02-24T04:26:59.551Z,1031.20
2019-02-24T04:28:00.963Z,1031.22
2019-02-24T04:29:02.392Z,1031.27
2019-02-24T04:30:03.848Z,1031.22
2019-02-24T04:31:05.246Z,1031.24
2019-02-24T04:32:06.648Z,1031.21
2019-02-24T04:33:08.054Z,1031.18
2019-02-24T04:34:09.458Z,1031.18
2019-02-24T04:35:10.868Z,1031.12
2019-02-24T04:36:12.272Z,1031.14
2019-02-24T04:37:13.684Z,1031.13
2019-02-24T04:38:16.046Z,1031.17
2019-02-24T04:39:16.465Z,1031.20
2019-02-24T04:40:17.874Z,1031.23
2019-02-24T04:41:19.275Z,1031.26
2019-02-24T04:42:20.703Z,1031.30
2019-02-24T04:43:22.102Z,1031.31
2019-02-24T04:44:23.509Z,1031.37
2019-02-24T04:45:24.923Z,1031.35
2019-02-24T04:46:26.312Z,1031.33
2019-02-24T04:47:27.727Z,1031.29
2019-02-24T04:48:29.135Z,1031.29
2019-02-24T04:49:30.528Z,1031.18
2019-02-24T04:50:31.928Z,1031.21
2019-02-24T04:51:33.346Z,1031.10
2019-02-24T04:52:34.760Z,1031.10
2019-02-24T04:53:36.173Z,1031.12
2019-02-24T04:54:37.572Z,1031.03
2019-02-24T04:55:38.977Z,1031.04
2019-02-24T04:56:40.376Z,1031.03
2019-02-24T04:57:41.802Z,1031.03
2019-02-24T04:58:43.193Z,1031.03
2019-02-24T04:59:44.617Z,1031.10
2019-02-24T05:00:46.015Z,1031.03
2019-02-24T05:01:47.410Z,1031.02
2019-02-24T05:02:48.822Z,1031.05
2019-02-24T05:03:50.248Z,1031.04
2019-02-24T05:04:51.624Z,1031.06
2019-02-24T05:05:53.020Z,1031.04
2019-02-24T05:06:54.403Z,1031.05
2019-02-24T05:07:55.822Z,1031.04
2019-02-24T05:08:57.255Z,1031.12
2019-02-24T05:09:58.659Z,1031.09
2019-02-24T05:11:00.050Z,1031.12
2019-02-24T05:12:01.504Z,1031.11
2019-02-24T05:13:02.904Z,1031.17
2019-02-24T05:14:04.318Z,1031.12
2019-02-24T05:15:05.714Z,1031.12
2019-02-24T05:16:07.098Z,1031.14
2019-02-24T05:17:08.484Z,1031.11
2019-02-24T05:18:09.865Z,1031.14
2019-02-24T05:19:11.269Z,1031.15
2019-02-24T05:20:12.661Z,1031.13
2019-02-24T05:21:14.057Z,1031.18
2019-02-24T05:22:15.460Z,1031.17
2019-02-24T05:23:16.851Z,1031.18
2019-02-24T05:24:18.247Z,1031.19
2019-02-24T05:25:19.623Z,1031.21
2019-02-24T05:26:21.021Z,1031.22
2019-02-24T05:27:22.427Z,1031.24
2019-02-24T05:28:23.814Z,1031.25
2019-02-24T05:29:25.215Z,1031.28
2019-02-24T05:30:26.594Z,1031.27
2019-02-24T05:31:27.984Z,1031.33
2019-02-24T05:32:29.399Z,1031.26
2019-02-24T05:33:30.799Z,1031.26
2019-02-24T05:34:32.206Z,1031.30
2019-02-24T05:35:33.592Z,1031.20
2019-02-24T05:36:34.992Z,1031.25
2019-02-24T05:37:36.381Z,1031.20
2019-02-24T05:38:37.775Z,1031.13
2019-02-24T05:39:39.169Z,1031.13
2019-02-24T05:40:40.556Z,1031.08
2019-02-24T05:41:41.966Z,1031.02
2019-02-24T05:42:43.365Z,1030.99
2019-02-24T05:43:44.766Z,1030.97
2019-02-24T05:44:46.160Z,1030.94
2019-02-24T05:45:47.546Z,1030.99
2019-02-24T05:46:48.938Z,1030.95
2019-02-24T05:47:50.346Z,1030.98
2019-02-24T05:48:51.737Z,1030.99
2019-02-24T05:49:53.121Z,1030.99
2019-02-24T05:50:54.512Z,1030.96
2019-02-24T05:51:55.923Z,1031.01
2019-02-24T05:52:57.309Z,1030.98
2019-02-24T05:53:58.698Z,1031.01
2019-02-24T05:55:00.221Z,1030.95
2019-02-24T05:56:01.455Z,1030.96
2019-02-24T05:57:02.850Z,1030.93
2019-02-24T05:58:04.228Z,1030.94
2019-02-24T05:59:05.616Z,1030.89
2019-02-24T06:00:07.013Z,1030.89
2019-02-24T06:01:08.404Z,1030.92
2019-02-24T06:02:09.808Z,1030.88
2019-02-24T06:03:11.886Z,1030.89
2019-02-24T06:04:13.270Z,1030.81
2019-02-24T06:05:14.657Z,1030.81
2019-02-24T06:06:16.034Z,1030.80
2019-02-24T06:07:17.427Z,1030.80
2019-02-24T06:08:18.822Z,1030.78
2019-02-24T06:09:20.216Z,1030.87
2019-02-24T06:10:21.613Z,1030.84
2019-02-24T06:11:23.025Z,1030.85
2019-02-24T06:12:24.463Z,1030.85
2019-02-24T06:13:25.825Z,1030.87
2019-02-24T06:14:27.216Z,1030.84
2019-02-24T06:15:28.621Z,1030.85
2019-02-24T06:16:30.044Z,1030.85
2019-02-24T06:17:31.437Z,1030.81
2019-02-24T06:18:32.837Z,1030.84
2019-02-24T06:19:34.278Z,1030.82
2019-02-24T06:20:35.682Z,1030.80
2019-02-24T06:21:37.079Z,1030.78
2019-02-24T06:22:38.468Z,1030.75
2019-02-24T06:23:39.867Z,1030.75
2019-02-24T06:24:41.279Z,1030.76
2019-02-24T06:25:42.674Z,1030.73
2019-02-24T06:26:44.568Z,1030.77
2019-02-24T06:27:45.970Z,1030.79
2019-02-24T06:28:47.354Z,1030.76
2019-02-24T06:29:48.782Z,1030.73
2019-02-24T06:30:50.176Z,1030.80
2019-02-24T06:31:51.576Z,1030.78
2019-02-24T06:32:52.979Z,1030.80
2019-02-24T06:33:54.369Z,1030.83
2019-02-24T06:34:55.778Z,1030.86
2019-02-24T06:35:57.164Z,1030.92
2019-02-24T06:36:58.583Z,1030.96
2019-02-24T06:38:00.011Z,1030.95
2019-02-24T06:39:01.448Z,1030.95
2019-02-24T06:40:02.878Z,1030.97
2019-02-24T06:41:04.293Z,1031.02
2019-02-24T06:42:05.679Z,1030.98
2019-02-24T06:43:07.067Z,1031.01
2019-02-24T06:44:08.472Z,1031.03
2019-02-24T06:45:09.922Z,1030.96
2019-02-24T06:46:11.336Z,1031.00
2019-02-24T06:47:12.680Z,1031.00
2019-02-24T06:48:14.074Z,1030.98
2019-02-24T06:49:15.486Z,1030.91
2019-02-24T06:50:16.875Z,1030.97
2019-02-24T06:51:18.278Z,1030.98
2019-02-24T06:52:19.686Z,1030.96
2019-02-24T06:53:21.084Z,1031.06
2019-02-24T06:54:22.596Z,1031.06
2019-02-24T06:55:24.020Z,1031.04
2019-02-24T06:56:25.418Z,1031.07
2019-02-24T06:57:27.408Z,1031.12
2019-02-24T06:58:28.817Z,1031.12
2019-02-24T06:59:30.233Z,1031.16
2019-02-24T07:00:31.616Z,1031.20
2019-02-24T07:01:33.019Z,1031.14
2019-02-24T07:02:34.415Z,1031.23
2019-02-24T07:03:35.813Z,1031.22
2019-02-24T07:04:37.215Z,1031.23
2019-02-24T07:05:38.610Z,1031.17
2019-02-24T07:06:39.999Z,1031.15
2019-02-24T07:07:41.415Z,1031.11
2019-02-24T07:08:42.831Z,1031.14
2019-02-24T07:09:44.220Z,1031.20
2019-02-24T07:10:45.615Z,1031.22
2019-02-24T07:11:47.006Z,1031.36
2019-02-24T07:12:48.389Z,1031.38
2019-02-24T07:13:49.783Z,1031.35
2019-02-24T07:14:51.183Z,1031.37
2019-02-24T07:15:52.577Z,1031.34
2019-02-24T07:16:53.995Z,1031.33
2019-02-24T07:17:55.406Z,1031.36
2019-02-24T07:18:56.801Z,1031.36
2019-02-24T07:19:58.196Z,1031.42
2019-02-24T07:20:59.596Z,1031.41
2019-02-24T07:22:01.820Z,1031.39
2019-02-24T07:23:03.220Z,1031.38
2019-02-24T07:24:04.620Z,1031.35
2019-02-24T07:25:06.015Z,1031.34
2019-02-24T07:26:07.421Z,1031.35
2019-02-24T07:27:08.828Z,1031.33
2019-02-24T07:28:10.222Z,1031.29
2019-02-24T07:29:11.616Z,1031.23
2019-02-24T07:30:13.082Z,1031.23
2019-02-24T07:31:14.471Z,1031.19
2019-02-24T07:32:15.866Z,1031.20
2019-02-24T07:33:17.329Z,1031.23
2019-02-24T07:34:18.758Z,1031.27
2019-02-24T07:35:20.162Z,1031.27
2019-02-24T07:36:21.601Z,1031.28
2019-02-24T07:37:22.990Z,1031.28
2019-02-24T07:38:24.395Z,1031.30
2019-02-24T07:39:25.784Z,1031.28
2019-02-24T07:40:27.193Z,1031.34
2019-02-24T07:41:28.618Z,1031.32
2019-02-24T07:42:29.989Z,1031.35
2019-02-24T07:43:31.398Z,1031.37
2019-02-24T07:44:32.805Z,1031.34
2019-02-24T07:45:34.216Z,1031.29
2019-02-24T07:46:35.666Z,1031.28
2019-02-24T07:47:37.057Z,1031.38
2019-02-24T07:48:38.475Z,1031.40
2019-02-24T07:49:39.870Z,1031.38
2019-02-24T07:50:41.270Z,1031.36
2019-02-24T07:51:42.675Z,1031.28
2019-02-24T07:52:44.074Z,1031.27
2019-02-24T07:53:45.472Z,1031.30
2019-02-24T07:54:46.872Z,1031.30
2019-02-24T07:55:48.272Z,1031.28
2019-02-24T07:56:49.664Z,1031.30
2019-02-24T07:57:51.974Z,1031.32
2019-02-24T07:58:53.362Z,1031.30
2019-02-24T07:59:54.768Z,1031.30
2019-02-24T08:00:56.167Z,1031.31
2019-02-24T08:01:57.571Z,1031.31
2019-02-24T08:02:58.983Z,1031.35
2019-02-24T08:04:00.384Z,1031.35
2019-02-24T08:05:01.787Z,1031.36
2019-02-24T08:06:03.247Z,1031.36
2019-02-24T08:07:04.586Z,1031.37
2019-02-24T08:08:06.001Z,1031.40
2019-02-24T08:09:07.423Z,1031.38
2019-02-24T08:10:08.827Z,1031.41
2019-02-24T08:11:10.291Z,1031.43
2019-02-24T08:12:11.703Z,1031.43
2019-02-24T08:13:13.139Z,1031.41
2019-02-24T08:14:14.532Z,1031.41
2019-02-24T08:15:15.927Z,1031.40
2019-02-24T08:16:17.334Z,1031.47
2019-02-24T08:17:18.727Z,1031.49
2019-02-24T08:18:20.192Z,1031.51
2019-02-24T08:19:21.611Z,1031.58
2019-02-24T08:20:23.014Z,1031.55
2019-02-24T08:21:24.435Z,1031.61
2019-02-24T08:22:25.834Z,1031.64
2019-02-24T08:23:27.233Z,1031.69
2019-02-24T08:24:29.163Z,1031.92
2019-02-24T08:25:30.019Z,1032.85
2019-02-24T08:26:31.474Z,1033.79
2019-02-24T08:27:32.870Z,1034.73
2019-02-24T08:28:34.292Z,1035.50
2019-02-24T08:29:35.705Z,1035.44
2019-02-24T08:30:41.482Z,1035.34
2019-02-24T08:31:38.511Z,1035.41
2019-02-24T08:32:39.943Z,1035.46
2019-02-24T08:33:41.348Z,1035.18
2019-02-24T08:34:42.747Z,1035.07
2019-02-24T08:35:44.159Z,1034.65
2019-02-24T08:36:45.576Z,1034.42
2019-02-24T08:37:47.006Z,1034.24
2019-02-24T08:38:48.416Z,1033.70
2019-02-24T08:39:49.829Z,1032.74
2019-02-24T08:40:51.249Z,1031.89
2019-02-24T08:41:52.661Z,1031.51
2019-02-24T08:42:54.078Z,1031.52
2019-02-24T08:43:55.487Z,1031.54
2019-02-24T08:44:56.918Z,1031.60
2019-02-24T08:45:58.346Z,1031.65
2019-02-24T08:46:59.744Z,1031.75
2019-02-24T08:48:01.164Z,1031.82
2019-02-24T08:49:02.582Z,1031.81
2019-02-24T08:50:03.998Z,1031.89
2019-02-24T08:51:05.429Z,1031.94
2019-02-24T08:52:06.831Z,1032.06
2019-02-24T08:53:08.251Z,1032.80
2019-02-24T08:54:10.477Z,1033.85
2019-02-24T08:55:11.879Z,1034.31
2019-02-24T08:56:13.286Z,1033.62
2019-02-24T08:57:14.703Z,1032.89
2019-02-24T08:58:16.123Z,1032.76
2019-02-24T08:59:17.537Z,1032.66
2019-02-24T09:00:18.949Z,1032.58
2019-02-24T09:01:20.389Z,1032.59
2019-02-24T09:02:21.808Z,1032.58
2019-02-24T09:03:23.227Z,1032.56
2019-02-24T09:04:24.639Z,1032.47
2019-02-24T09:05:26.071Z,1032.38
2019-02-24T09:06:27.481Z,1032.35
2019-02-24T09:07:28.943Z,1032.36
2019-02-24T09:08:30.358Z,1032.33
2019-02-24T09:09:31.765Z,1032.30
2019-02-24T09:10:33.169Z,1032.28
2019-02-24T09:11:34.598Z,1032.26
2019-02-24T09:12:36.016Z,1032.23
2019-02-24T09:13:37.440Z,1032.23
2019-02-24T09:14:38.862Z,1032.19
2019-02-24T09:15:40.276Z,1032.10
2019-02-24T09:16:41.693Z,1032.04
2019-02-24T09:17:43.128Z,1032.03
2019-02-24T09:18:44.553Z,1032.00
2019-02-24T09:19:45.993Z,1031.98
2019-02-24T09:20:47.407Z,1031.96
2019-02-24T09:21:48.841Z,1032.00
2019-02-24T09:22:50.235Z,1032.01
2019-02-24T09:23:51.657Z,1032.02
2019-02-24T09:24:53.084Z,1031.96
2019-02-24T09:25:54.531Z,1031.97
2019-02-24T09:26:55.951Z,1031.94
2019-02-24T09:27:57.389Z,1031.88
2019-02-24T09:28:58.827Z,1031.84
2019-02-24T09:30:00.313Z,1031.85
2019-02-24T09:31:01.657Z,1031.84
2019-02-24T09:32:03.083Z,1031.87
2019-02-24T09:33:04.543Z,1031.92
2019-02-24T09:34:05.970Z,1031.87
2019-02-24T09:35:07.417Z,1031.87
2019-02-24T09:36:08.837Z,1031.86
2019-02-24T09:37:10.279Z,1031.84
2019-02-24T09:38:11.723Z,1031.85
2019-02-24T09:39:13.172Z,1031.79
2019-02-24T09:40:14.620Z,1031.77
2019-02-24T09:41:16.078Z,1031.74
2019-02-24T09:42:17.532Z,1031.75
2019-02-24T09:43:18.990Z,1031.75
2019-02-24T09:44:20.420Z,1031.76
2019-02-24T09:45:21.852Z,1031.74
2019-02-24T09:46:23.267Z,1031.78
2019-02-24T09:47:24.721Z,1031.78
2019-02-24T09:48:26.156Z,1031.82
2019-02-24T09:49:27.593Z,1031.88
2019-02-24T09:50:29.010Z,1031.88
2019-02-24T09:51:30.455Z,1031.86
2019-02-24T09:52:31.885Z,1031.87
2019-02-24T09:53:33.317Z,1031.87
2019-02-24T09:54:34.735Z,1031.87
2019-02-24T09:55:36.151Z,1031.94
2019-02-24T09:56:37.585Z,1031.97
2019-02-24T09:57:39.003Z,1032.01
2019-02-24T09:58:40.436Z,1032.05
2019-02-24T09:59:41.867Z,1032.09
2019-02-24T10:00:44.112Z,1032.09
2019-02-24T10:01:45.537Z,1032.07
2019-02-24T10:02:46.972Z,1032.08
2019-02-24T10:03:48.393Z,1032.20
2019-02-24T10:04:49.830Z,1032.27
2019-02-24T10:05:51.267Z,1032.29
2019-02-24T10:06:52.688Z,1032.24
2019-02-24T10:07:54.103Z,1032.31
2019-02-24T10:08:55.542Z,1032.46
2019-02-24T10:09:56.966Z,1032.49
2019-02-24T10:10:58.399Z,1032.55
2019-02-24T10:11:59.826Z,1032.52
2019-02-24T10:13:01.247Z,1032.56
2019-02-24T10:14:02.713Z,1032.66
2019-02-24T10:15:04.153Z,1032.72
2019-02-24T10:16:05.597Z,1032.60
2019-02-24T10:17:07.022Z,1032.44
2019-02-24T10:18:08.443Z,1032.43
2019-02-24T10:19:09.862Z,1032.45
2019-02-24T10:20:11.282Z,1032.47
2019-02-24T10:21:12.711Z,1032.43
2019-02-24T10:22:14.133Z,1032.53
2019-02-24T10:23:15.518Z,1032.57
2019-02-24T10:24:16.955Z,1032.59
2019-02-24T10:25:18.367Z,1032.70
2019-02-24T10:26:19.791Z,1032.83
2019-02-24T10:27:21.205Z,1032.95
2019-02-24T10:28:22.626Z,1032.92
2019-02-24T10:29:24.073Z,1032.83
2019-02-24T10:30:25.493Z,1032.77
2019-02-24T10:31:26.928Z,1032.77
2019-02-24T10:32:28.346Z,1032.61
2019-02-24T10:33:29.785Z,1032.33
2019-02-24T10:34:31.218Z,1032.09
2019-02-24T10:35:32.632Z,1032.03
2019-02-24T10:36:34.056Z,1031.97
2019-02-24T10:37:35.484Z,1032.02
2019-02-24T10:38:36.898Z,1031.99
2019-02-24T10:39:38.328Z,1031.97
2019-02-24T10:40:39.744Z,1031.96
2019-02-24T10:41:41.184Z,1031.91
2019-02-24T10:42:42.605Z,1031.87
2019-02-24T10:43:44.029Z,1031.89
2019-02-24T10:44:45.452Z,1031.86
2019-02-24T10:45:46.908Z,1031.91
2019-02-24T10:46:48.356Z,1031.93
2019-02-24T10:47:49.784Z,1031.91
2019-02-24T10:48:51.196Z,1031.93
2019-02-24T10:49:52.618Z,1032.02
2019-02-24T10:50:54.055Z,1032.06
2019-02-24T10:51:55.476Z,1032.05
2019-02-24T10:52:56.886Z,1032.10
2019-02-24T10:53:58.305Z,1032.12
2019-02-24T10:54:59.728Z,1032.13
2019-02-24T10:56:01.145Z,1032.20
2019-02-24T10:57:02.561Z,1032.21
2019-02-24T10:58:03.977Z,1032.22
2019-02-24T10:59:05.393Z,1032.21
2019-02-24T11:00:06.804Z,1032.25
2019-02-24T11:01:08.244Z,1032.32
2019-02-24T11:02:09.655Z,1032.32
2019-02-24T11:03:11.133Z,1032.25
2019-02-24T11:04:13.226Z,1032.26
2019-02-24T11:05:14.656Z,1032.18
2019-02-24T11:06:16.065Z,1032.21
2019-02-24T11:07:17.480Z,1032.18
2019-02-24T11:08:18.885Z,1032.20
2019-02-24T11:09:20.314Z,1032.18
2019-02-24T11:10:21.772Z,1032.11
2019-02-24T11:11:23.210Z,1031.96
2019-02-24T11:12:24.638Z,1031.89
2019-02-24T11:13:26.060Z,1031.83
2019-02-24T11:14:27.516Z,1031.83
2019-02-24T11:15:28.902Z,1031.76
2019-02-24T11:16:32.146Z,1031.78
2019-02-24T11:17:31.736Z,1031.81
2019-02-24T11:18:33.164Z,1031.90
2019-02-24T11:19:34.582Z,1031.88
2019-02-24T11:20:36.051Z,1032.02
2019-02-24T11:21:37.489Z,1031.98
2019-02-24T11:22:38.927Z,1031.94
2019-02-24T11:23:40.349Z,1031.93
2019-02-24T11:24:41.767Z,1031.97
2019-02-24T11:25:43.191Z,1031.90
2019-02-24T11:26:45.407Z,1031.90
2019-02-24T11:27:46.832Z,1031.87
2019-02-24T11:28:48.243Z,1031.80
2019-02-24T11:29:49.651Z,1031.81
2019-02-24T11:30:51.067Z,1031.81
2019-02-24T11:31:52.481Z,1031.83
2019-02-24T11:32:53.901Z,1031.82
2019-02-24T11:33:55.312Z,1031.84
2019-02-24T11:34:56.740Z,1031.80
2019-02-24T11:35:59.017Z,1031.80
2019-02-24T11:37:00.431Z,1031.80
2019-02-24T11:38:01.857Z,1031.73
2019-02-24T11:39:03.306Z,1031.72
2019-02-24T11:40:04.734Z,1031.70
2019-02-24T11:41:06.144Z,1031.61
2019-02-24T11:42:07.582Z,1031.58
2019-02-24T11:43:08.989Z,1031.58
2019-02-24T11:44:10.401Z,1031.57
2019-02-24T11:45:11.828Z,1031.60
2019-02-24T11:46:13.313Z,1031.64
2019-02-24T11:47:14.731Z,1031.63
2019-02-24T11:48:16.144Z,1031.63
2019-02-24T11:49:17.548Z,1031.59
2019-02-24T11:50:18.971Z,1031.60
2019-02-24T11:51:20.405Z,1031.55
2019-02-24T11:52:21.801Z,1031.48
2019-02-24T11:53:23.219Z,1031.50
2019-02-24T11:54:24.633Z,1031.48
2019-02-24T11:55:26.047Z,1031.58
2019-02-24T11:56:27.461Z,1031.54
2019-02-24T11:57:28.871Z,1031.55
2019-02-24T11:58:30.277Z,1031.55
2019-02-24T11:59:31.684Z,1031.57
2019-02-24T12:00:33.090Z,1031.50
2019-02-24T12:01:34.516Z,1031.49
2019-02-24T12:02:35.934Z,1031.44
2019-02-24T12:03:37.341Z,1031.36
2019-02-24T12:04:38.755Z,1031.35
2019-02-24T12:05:40.193Z,1031.28
2019-02-24T12:06:41.602Z,1031.29
2019-02-24T12:07:43.008Z,1031.27
2019-02-24T12:08:44.540Z,1031.26
2019-02-24T12:09:45.954Z,1031.27
2019-02-24T12:10:47.365Z,1031.29
2019-02-24T12:11:48.808Z,1031.25
2019-02-24T12:12:50.218Z,1031.23
2019-02-24T12:13:51.627Z,1031.21
2019-02-24T12:14:53.027Z,1031.23
2019-02-24T12:15:54.891Z,1031.27
2019-02-24T12:16:55.807Z,1031.25
2019-02-24T12:17:57.221Z,1031.24
2019-02-24T12:18:58.623Z,1031.22
2019-02-24T12:20:00.048Z,1031.19
2019-02-24T12:21:01.454Z,1031.17
2019-02-24T12:22:02.867Z,1031.17
2019-02-24T12:23:04.349Z,1031.13